KUNV/SCE METAR and TAF weather

Enter ICAO airport designator
Station Type Date Time Source
KUNV METAR 2022/06/27 16:53 UTC NOAA

KUNV 271653Z 32008G14KT 10SM SCT050 24/12 A3005


Station Type Date Time Source
KUNV Decoded METAR 2022/06/27 16:53 UTC NOAA

State College, University Park Airport, PA, United States (KUNV) 40-51N 077-51W
Jun 27, 2022 - 12:53 PM EDT / 2022.06.27 1653 UTC
Wind: from the NW (320 degrees) at 9 MPH (8 KT) gusting to 16 MPH (14 KT):0
Visibility: 10 mile(s):0
Sky conditions: partly cloudy
Temperature: 75 F (24 C)
Dew Point: 53 F (12 C)
Relative Humidity: 46%
Pressure (altimeter): 30.05 in. Hg (1017 hPa)
ob: KUNV 271653Z 32008G14KT 10SM SCT050 24/12 A3005
cycle: 17

Station Type Date Time Source
KUNV TAF 2022/06/27 15:16 UTC NOAA

TAF
AMD KUNV 271514Z 2715/2812 30012G19KT P6SM FEW040
FM280100 32006KT P6SM SKC

Example: see airport list